createdAt,value
2022-10-31T00:00:12.477Z,13.93
2022-10-31T00:10:13.881Z,13.73
2022-10-31T00:20:15.186Z,13.68
2022-10-31T00:30:16.501Z,13.95
2022-10-31T00:40:17.802Z,15.60
2022-10-31T00:50:19.123Z,13.98
2022-10-31T01:00:20.476Z,16.27
2022-10-31T01:10:21.848Z,16.90
2022-10-31T01:20:23.172Z,18.83
2022-10-31T01:30:24.503Z,15.68
2022-10-31T01:40:25.834Z,13.20
2022-10-31T01:50:27.201Z,16.50
2022-10-31T02:00:28.428Z,15.98
2022-10-31T02:10:29.827Z,14.45
2022-10-31T02:20:31.153Z,13.98
2022-10-31T02:30:32.483Z,16.42
2022-10-31T02:40:33.799Z,17.60
2022-10-31T02:50:35.210Z,13.95
2022-10-31T03:00:36.512Z,17.63
2022-10-31T03:10:37.999Z,13.98
2022-10-31T03:20:39.330Z,17.67
2022-10-31T03:30:40.682Z,17.88
2022-10-31T03:40:42.037Z,15.05
2022-10-31T03:50:43.327Z,14.52
2022-10-31T04:00:44.733Z,15.82
2022-10-31T04:10:46.121Z,16.20
2022-10-31T04:20:47.520Z,15.80
2022-10-31T04:30:49.033Z,13.43
2022-10-31T04:40:50.397Z,17.80
2022-10-31T04:50:51.765Z,13.95
2022-10-31T05:00:53.257Z,13.48
2022-10-31T05:10:54.766Z,15.35
2022-10-31T05:20:56.085Z,15.70
2022-10-31T05:30:57.389Z,14.45
2022-10-31T05:41:00.975Z,15.18
2022-10-31T05:51:02.350Z,16.92
2022-10-31T06:01:03.827Z,14.18
2022-10-31T06:11:05.158Z,25.20
2022-10-31T06:21:06.616Z,16.90
2022-10-31T06:31:07.920Z,13.65
2022-10-31T06:41:09.250Z,18.00
2022-10-31T06:51:10.555Z,13.95
2022-10-31T07:01:12.214Z,16.80
2022-10-31T07:11:13.675Z,15.52
2022-10-31T07:21:15.112Z,14.05
2022-10-31T07:31:16.555Z,17.60
2022-10-31T07:41:17.886Z,15.77
2022-10-31T07:51:19.207Z,15.88
2022-10-31T08:01:20.592Z,15.05
2022-10-31T08:11:21.969Z,15.88
2022-10-31T08:21:23.378Z,16.23
2022-10-31T08:31:31.979Z,14.98
2022-10-31T08:41:34.871Z,16.70
2022-10-31T08:51:36.211Z,16.33
2022-10-31T09:01:37.744Z,14.32
2022-10-31T09:11:39.140Z,16.88
2022-10-31T09:21:40.465Z,12.35
2022-10-31T09:31:44.866Z,13.50
2022-10-31T09:41:46.453Z,13.63
2022-10-31T09:51:52.693Z,12.82
2022-10-31T10:01:54.731Z,11.85
2022-10-31T10:11:56.068Z,14.95
2022-10-31T10:21:57.397Z,15.00
2022-10-31T10:31:58.748Z,15.77
2022-10-31T10:42:18.747Z,14.05
2022-10-31T10:52:39.792Z,11.73
2022-10-31T11:02:45.042Z,14.68
2022-10-31T11:12:49.343Z,13.68
2022-10-31T11:22:50.736Z,14.70
2022-10-31T11:32:55.069Z,14.65
2022-10-31T11:42:56.333Z,13.93
2022-10-31T11:52:57.600Z,12.18
2022-10-31T12:02:59.302Z,14.45
2022-10-31T12:13:01.154Z,13.25
2022-10-31T12:23:03.264Z,17.13
2022-10-31T12:33:04.813Z,9.93
2022-10-31T12:43:06.173Z,14.55
2022-10-31T12:53:07.526Z,17.08
2022-10-31T13:03:09.054Z,12.80
2022-10-31T13:13:10.382Z,20.20
2022-10-31T13:23:23.790Z,12.70
2022-10-31T13:33:34.045Z,16.58
2022-10-31T13:43:35.377Z,16.08
2022-10-31T13:53:36.718Z,15.32
2022-10-31T14:04:04.553Z,12.23
2022-10-31T14:13:59.745Z,17.38
2022-10-31T14:24:01.209Z,15.60
2022-10-31T14:34:02.552Z,12.80
2022-10-31T14:44:03.911Z,16.35
2022-10-31T14:54:05.133Z,14.02
2022-10-31T15:04:24.078Z,14.02
2022-10-31T15:14:26.121Z,14.38
2022-10-31T15:24:27.479Z,15.23
2022-10-31T15:34:28.880Z,17.65
2022-10-31T15:44:30.215Z,19.15
2022-10-31T15:54:31.667Z,18.48
2022-10-31T16:04:32.968Z,18.35
2022-10-31T16:14:34.311Z,18.17
2022-10-31T16:24:35.644Z,33.08
2022-10-31T16:34:37.026Z,22.40
2022-10-31T16:44:38.347Z,23.13
2022-10-31T16:54:40.342Z,25.60
2022-10-31T17:04:41.666Z,30.83
2022-10-31T17:14:42.981Z,26.55
2022-10-31T17:24:44.282Z,21.35
2022-10-31T17:34:45.831Z,17.63
2022-10-31T17:44:47.145Z,64.25
2022-10-31T17:54:48.571Z,22.73
2022-10-31T18:04:49.887Z,24.02
2022-10-31T18:14:51.215Z,23.30
2022-10-31T18:24:52.530Z,26.35
2022-10-31T18:34:54.024Z,34.63
2022-10-31T18:44:55.332Z,28.58
2022-10-31T18:54:57.806Z,34.55
2022-10-31T19:04:59.065Z,29.48
2022-10-31T19:15:00.413Z,29.27
2022-10-31T19:25:05.041Z,31.95
2022-10-31T19:35:11.629Z,38.88
2022-10-31T19:45:12.927Z,34.35
2022-10-31T19:55:14.416Z,34.08
2022-10-31T20:05:15.660Z,37.72
2022-10-31T20:15:16.891Z,41.95
2022-10-31T20:25:18.988Z,37.80
2022-10-31T20:35:20.367Z,31.10
2022-10-31T20:45:22.087Z,27.45
2022-10-31T20:55:23.668Z,29.63
2022-10-31T21:05:25.093Z,27.02
2022-10-31T21:15:26.365Z,34.30
2022-10-31T21:25:27.693Z,31.88
2022-10-31T21:35:29.053Z,32.03
2022-10-31T21:45:30.335Z,35.63
2022-10-31T21:55:31.872Z,33.03
2022-10-31T22:05:33.296Z,28.98
2022-10-31T22:15:34.603Z,27.85
2022-10-31T22:25:35.993Z,32.45
2022-10-31T22:35:38.496Z,29.10
2022-10-31T22:45:39.807Z,28.30
2022-10-31T22:55:42.008Z,27.08
2022-10-31T23:05:43.410Z,30.13
2022-10-31T23:15:44.775Z,27.20
2022-10-31T23:26:04.939Z,25.13
2022-10-31T23:36:06.246Z,34.88
2022-10-31T23:46:07.594Z,26.77
2022-10-31T23:56:08.936Z,30.08
